Time;durP1;ratioP1;P1;durP2;ratioP2;P2;SDS_P1;SDS_P2;PMS_P1;PMS_P2;Temp;Humidity;BMP_temperature;BMP_pressure;BME280_temperature;BME280_humidity;BME280_pressure;Samples;Min_cycle;Max_cycle;Signal;HPM_P1;HPM_P2
2021/12/19 00:00:30;;;;;;;5.32;3.13;;;;;;;19.18;47.04;101105.22;4181712;28;20067;-46
2021/12/19 00:09:14;;;;;;;4.57;2.90;;;;;;;19.14;47.27;101102.13;4177345;28;20087;-45
2021/12/19 00:11:26;;;;;;;4.35;2.85;;;;;;;19.16;46.86;101110.22;4168608;28;20484;-47
2021/12/19 00:13:28;;;;;;;6.72;2.75;;;;;;;19.18;47.29;101119.09;4178924;28;20458;-45
2021/12/19 00:15:29;;;;;;;3.83;2.85;;;;;;;19.12;47.22;101121.00;4181604;28;20045;-45
2021/12/19 00:17:31;;;;;;;5.82;3.42;;;;;;;19.16;47.10;101107.44;4180834;28;20075;-44
2021/12/19 00:19:32;;;;;;;9.65;3.17;;;;;;;19.14;47.33;101107.69;4175281;28;20046;-47
2021/12/19 00:21:35;;;;;;;6.65;3.05;;;;;;;19.13;47.16;101111.56;4175168;28;20048;-42
2021/12/19 00:23:38;;;;;;;5.80;3.17;;;;;;;19.08;47.21;101102.38;4182182;28;20435;-42
2021/12/19 00:25:40;;;;;;;9.45;2.65;;;;;;;19.10;47.55;101095.44;4171279;28;20037;-44
2021/12/19 00:27:41;;;;;;;5.07;2.50;;;;;;;19.15;47.38;101105.75;4165026;28;20095;-44
2021/12/19 00:29:43;;;;;;;5.28;3.35;;;;;;;19.14;47.24;101099.38;4164967;28;20037;-43
2021/12/19 00:31:48;;;;;;;4.18;2.70;;;;;;;19.15;47.27;101098.28;4165058;28;20530;-51
2021/12/19 00:33:49;;;;;;;4.28;2.40;;;;;;;19.12;47.05;101084.94;4164996;28;20042;-47
2021/12/19 00:35:51;;;;;;;6.60;2.70;;;;;;;19.12;47.32;101065.53;4164768;28;20029;-45
2021/12/19 00:37:53;;;;;;;7.82;2.83;;;;;;;19.12;47.54;101079.38;4163056;28;20114;-45
2021/12/19 00:39:55;;;;;;;7.40;2.95;;;;;;;19.12;47.53;101076.63;4181138;28;20049;-46
2021/12/19 00:41:59;;;;;;;4.80;2.35;;;;;;;19.14;47.08;101077.16;4180160;28;20079;-43
2021/12/19 00:44:09;;;;;;;6.43;2.70;;;;;;;19.12;47.27;101064.69;4181774;28;20051;-48
2021/12/19 00:46:12;;;;;;;3.88;2.63;;;;;;;19.13;47.37;101072.72;4180048;28;20033;-46
2021/12/19 00:48:13;;;;;;;4.43;2.75;;;;;;;19.06;47.43;101063.81;4166874;28;20037;-46
2021/12/19 00:50:15;;;;;;;6.47;2.80;;;;;;;19.12;47.25;101071.06;4165208;28;20037;-46
2021/12/19 00:52:17;;;;;;;4.70;2.50;;;;;;;19.14;46.92;101062.47;4176281;28;20103;-44
2021/12/19 00:54:18;;;;;;;3.50;2.17;;;;;;;19.13;47.06;101050.53;4181728;28;20025;-46
2021/12/19 00:56:20;;;;;;;9.45;2.80;;;;;;;19.13;47.04;101044.16;4181350;28;20118;-47
2021/12/19 00:58:22;;;;;;;5.38;2.50;;;;;;;19.14;46.97;101043.88;4181335;28;20021;-46
2021/12/19 01:00:27;;;;;;;5.80;2.53;;;;;;;19.14;47.21;101030.00;4176323;28;20053;-44
2021/12/19 01:02:29;;;;;;;5.88;2.42;;;;;;;19.14;46.97;101030.00;4179261;28;20053;-44
2021/12/19 01:04:30;;;;;;;4.45;2.53;;;;;;;19.15;47.29;101033.63;4176088;28;20049;-46
2021/12/19 01:06:32;;;;;;;7.97;2.75;;;;;;;19.13;47.21;101045.00;4171500;28;20037;-46
2021/12/19 01:08:33;;;;;;;6.20;2.15;;;;;;;19.13;47.32;101033.06;4175729;28;20029;-44
2021/12/19 01:10:36;;;;;;;6.60;2.63;;;;;;;19.10;47.30;101037.19;4179368;28;20032;-44
2021/12/19 01:12:38;;;;;;;3.63;2.53;;;;;;;19.10;47.21;101012.22;4174007;28;20103;-43
2021/12/19 01:14:40;;;;;;;4.72;2.75;;;;;;;19.10;47.35;101012.22;4174069;28;20358;-44
2021/12/19 01:16:44;;;;;;;7.13;2.50;;;;;;;19.12;47.22;101020.31;4172468;28;20040;-46
2021/12/19 01:18:49;;;;;;;5.78;2.60;;;;;;;19.06;47.33;101025.00;4180046;28;20037;-45
2021/12/19 01:20:53;;;;;;;2.72;2.03;;;;;;;19.11;47.36;101025.03;4168856;28;20087;-44
2021/12/19 01:22:55;;;;;;;5.35;2.20;;;;;;;19.11;46.84;101033.34;4181184;28;20037;-48
2021/12/19 01:24:56;;;;;;;3.97;2.53;;;;;;;19.10;47.28;101016.94;4180050;28;20033;-44
2021/12/19 01:26:58;;;;;;;7.03;3.30;;;;;;;19.10;46.98;101017.78;4179529;28;20091;-45
2021/12/19 01:29:02;;;;;;;9.13;3.95;;;;;;;19.10;47.20;101000.31;4175049;28;20087;-43
2021/12/19 01:31:04;;;;;;;11.50;4.80;;;;;;;19.07;47.18;100995.31;4176270;28;20476;-45
2021/12/19 01:33:06;;;;;;;17.15;8.57;;;;;;;19.06;46.92;100988.94;4170259;28;20084;-51
2021/12/19 01:35:10;;;;;;;16.17;9.02;;;;;;;19.07;47.39;100987.00;4170845;28;20739;-44
2021/12/19 01:37:12;;;;;;;15.90;9.77;;;;;;;19.05;47.15;100970.59;4175230;28;20041;-44
2021/12/19 01:39:14;;;;;;;21.13;12.40;;;;;;;18.82;47.49;100924.69;4167003;28;20352;-42
2021/12/19 01:41:16;;;;;;;28.50;14.60;;;;;;;19.01;47.44;100948.13;4179342;28;20518;-44
2021/12/19 01:43:24;;;;;;;33.83;19.73;;;;;;;19.06;47.54;100958.44;4177919;28;20533;-43
2021/12/19 01:45:31;;;;;;;37.00;20.58;;;;;;;19.06;47.61;100950.09;4169688;28;20025;-46
2021/12/19 01:47:33;;;;;;;37.13;19.50;;;;;;;18.85;47.74;100924.16;4177213;28;20040;-44
2021/12/19 01:49:34;;;;;;;32.42;19.17;;;;;;;19.08;47.45;100956.19;4181004;28;20435;-43
2021/12/19 01:51:37;;;;;;;33.90;19.17;;;;;;;19.07;47.59;100957.31;4178825;28;20423;-44
2021/12/19 01:53:38;;;;;;;42.50;20.27;;;;;;;19.09;47.56;100954.25;4180224;28;20460;-44
2021/12/19 01:55:42;;;;;;;35.33;20.17;;;;;;;19.09;47.48;100948.72;4180455;28;20429;-44
2021/12/19 01:57:44;;;;;;;35.90;20.10;;;;;;;19.02;47.78;100932.31;4166939;28;20107;-44
2021/12/19 01:59:46;;;;;;;34.83;19.80;;;;;;;19.08;47.95;100924.88;4165920;28;20103;-44
2021/12/19 02:01:53;;;;;;;36.58;20.83;;;;;;;19.08;47.54;100914.59;4180422;28;20103;-44
2021/12/19 02:03:55;;;;;;;31.95;19.80;;;;;;;19.08;47.81;100914.59;4177547;28;20393;-43
2021/12/19 02:05:56;;;;;;;35.42;21.17;;;;;;;19.09;47.60;100919.03;4175539;28;20513;-44
2021/12/19 02:07:59;;;;;;;37.33;21.52;;;;;;;19.09;48.63;100905.16;4170063;28;20067;-44
2021/12/19 02:10:03;;;;;;;47.67;23.48;;;;;;;18.91;51.90;100869.56;4164869;28;20508;-43
2021/12/19 02:12:04;;;;;;;45.08;26.05;;;;;;;19.11;54.57;100902.97;4173463;28;20510;-44
2021/12/19 02:14:08;;;;;;;45.28;25.52;;;;;;;19.14;57.01;100896.03;4174548;28;20045;-45
2021/12/19 02:16:10;;;;;;;47.05;23.75;;;;;;;19.13;57.07;100884.13;4178080;28;20729;-45
2021/12/19 02:18:19;;;;;;;45.85;23.25;;;;;;;19.13;56.74;100877.72;4181629;28;20122;-44
2021/12/19 02:20:22;;;;;;;41.78;23.00;;;;;;;19.14;57.28;100879.41;4180983;28;20037;-46
2021/12/19 02:22:23;;;;;;;39.38;22.10;;;;;;;19.15;56.53;100870.81;4170325;28;20049;-48
2021/12/19 02:24:25;;;;;;;40.33;21.63;;;;;;;19.15;55.42;100858.88;4165634;28;20045;-46
2021/12/19 02:26:26;;;;;;;37.58;20.60;;;;;;;19.17;55.13;100854.72;4165959;28;20049;-44
2021/12/19 02:28:28;;;;;;;34.47;20.83;;;;;;;19.19;54.34;100849.72;4166499;28;20115;-44
2021/12/19 02:30:29;;;;;;;39.28;20.58;;;;;;;19.16;54.56;100839.19;4166829;28;20049;-43
2021/12/19 02:32:32;;;;;;;39.67;20.83;;;;;;;19.21;53.96;100842.00;4166836;28;20099;-44
2021/12/19 02:34:40;;;;;;;38.97;20.65;;;;;;;19.22;53.49;100854.75;4166663;28;20366;-44
2021/12/19 02:50:14;;;;;;;34.72;19.33;;;;;;;19.16;52.40;100855.84;4183996;28;20500;-43
2021/12/19 02:52:19;;;;;;;32.65;17.60;;;;;;;19.15;52.79;100851.41;4183639;28;20029;-45
2021/12/19 02:54:21;;;;;;;;;;;;;;;19.12;52.50;100854.72;4184202;28;20082;-44
2021/12/19 02:56:22;;;;;;;38.03;19.38;;;;;;;19.19;52.72;100848.91;4183059;28;19917;-49
2021/12/19 02:58:24;;;;;;;29.90;18.10;;;;;;;19.19;52.71;100843.34;4175391;28;20029;-45
2021/12/19 03:00:26;;;;;;;34.22;17.25;;;;;;;19.14;52.33;100846.94;4167095;28;20100;-43
2021/12/19 03:02:28;;;;;;;33.10;19.25;;;;;;;19.15;52.26;100848.63;4166792;28;20318;-44
2021/12/19 03:04:32;;;;;;;31.13;17.90;;;;;;;19.10;52.55;100834.72;4166620;28;20034;-45
2021/12/19 03:06:34;;;;;;;32.83;17.27;;;;;;;19.11;52.30;100835.59;4166537;28;20045;-48
2021/12/19 03:08:41;;;;;;;36.95;18.27;;;;;;;19.12;52.46;100838.06;4166433;28;20271;-45
2021/12/19 03:11:29;;;;;;;32.28;17.17;;;;;;;19.13;52.44;100836.97;4166676;28;20037;-42
2021/12/19 03:13:47;;;;;;;32.05;16.90;;;;;;;19.13;52.13;100838.91;4179429;28;20033;-45
2021/12/19 03:18:11;;;;;;;28.15;16.90;;;;;;;19.10;52.05;100845.81;4183269;28;20429;-46
2021/12/19 03:20:12;;;;;;;24.52;15.80;;;;;;;19.08;52.05;100859.13;4175194;28;20041;-47
2021/12/19 03:22:13;;;;;;;29.67;16.50;;;;;;;19.05;52.26;100849.41;4166458;28;20473;-44
2021/12/19 03:24:15;;;;;;;30.73;16.45;;;;;;;19.02;52.33;100824.16;4164812;28;20038;-46
2021/12/19 03:26:17;;;;;;;26.48;15.65;;;;;;;19.05;52.09;100834.69;4166560;28;20056;-43
2021/12/19 03:28:18;;;;;;;25.27;14.95;;;;;;;19.03;52.10;100831.38;4165646;28;20049;-45
2021/12/19 03:30:20;;;;;;;24.90;14.73;;;;;;;18.79;51.76;100786.63;4164091;28;20143;-44
2021/12/19 03:32:24;;;;;;;30.23;15.55;;;;;;;19.03;51.86;100820.28;4176545;28;20013;-45
2021/12/19 03:34:28;;;;;;;24.77;14.77;;;;;;;19.02;51.54;100821.41;4182094;28;20476;-45
2021/12/19 03:36:31;;;;;;;28.42;14.75;;;;;;;19.00;51.60;100812.50;4182346;28;20151;-48
2021/12/19 03:38:38;;;;;;;23.23;14.15;;;;;;;19.00;51.58;100821.66;4182402;28;20476;-45
2021/12/19 03:40:50;;;;;;;23.17;14.20;;;;;;;19.00;51.82;100829.13;4182845;28;20059;-46
2021/12/19 03:42:54;;;;;;;23.15;14.07;;;;;;;18.99;51.47;100827.47;4182196;28;20103;-46
2021/12/19 03:44:55;;;;;;;24.83;13.35;;;;;;;19.00;51.43;100829.13;4182038;28;20049;-47
2021/12/19 03:46:57;;;;;;;22.67;13.48;;;;;;;19.03;51.20;100843.31;4170409;28;20083;-46
2021/12/19 03:48:59;;;;;;;27.35;15.68;;;;;;;19.04;51.04;100841.34;4169118;28;20103;-43
2021/12/19 03:51:00;;;;;;;40.50;24.48;;;;;;;19.03;50.98;100839.69;4163780;28;20037;-44
2021/12/19 03:53:04;;;;;;;50.55;28.73;;;;;;;19.04;50.95;100831.09;4164316;28;20091;-43
2021/12/19 03:55:08;;;;;;;75.10;44.22;;;;;;;19.03;50.79;100812.78;4166593;28;20103;-43
2021/12/19 03:57:10;;;;;;;96.10;59.20;;;;;;;19.02;51.16;100815.84;4164728;28;20049;-46
2021/12/19 03:59:11;;;;;;;94.80;58.30;;;;;;;19.02;51.09;100815.84;4164776;28;20083;-46
2021/12/19 04:01:13;;;;;;;90.85;56.92;;;;;;;19.00;51.18;100813.31;4164435;28;20461;-46
2021/12/19 04:03:19;;;;;;;88.63;53.60;;;;;;;19.01;51.12;100800.28;4171584;28;20045;-44
2021/12/19 04:05:21;;;;;;;87.47;53.85;;;;;;;18.99;50.91;100797.81;4164632;28;20417;-46
2021/12/19 04:07:23;;;;;;;86.65;50.53;;;;;;;19.00;50.74;100795.84;4167058;28;20621;-48
2021/12/19 04:09:25;;;;;;;79.57;48.65;;;;;;;18.98;50.78;100787.00;4164525;28;20469;-43
2021/12/19 04:11:26;;;;;;;84.45;48.58;;;;;;;18.99;51.02;100795.03;4165198;28;20551;-49
2021/12/19 04:13:28;;;;;;;80.63;47.35;;;;;;;18.91;50.80;100776.13;4164733;28;20045;-43
2021/12/19 04:15:29;;;;;;;81.65;47.00;;;;;;;18.98;50.61;100798.09;4164482;28;20046;-45
2021/12/19 04:17:31;;;;;;;74.78;47.83;;;;;;;18.96;50.85;100806.66;4164259;28;20053;-44
2021/12/19 04:19:33;;;;;;;82.30;48.33;;;;;;;18.96;50.67;100814.97;4164517;28;20033;-49
2021/12/19 04:21:34;;;;;;;76.45;46.05;;;;;;;18.96;50.92;100828.00;4167425;28;20037;-43
2021/12/19 04:23:36;;;;;;;72.82;46.80;;;;;;;18.97;50.62;100822.22;4162839;28;20045;-46
2021/12/19 04:25:37;;;;;;;74.43;45.70;;;;;;;18.96;50.58;100817.75;4164377;28;20079;-44
2021/12/19 04:27:39;;;;;;;70.10;44.17;;;;;;;18.96;50.20;100811.38;4164567;28;20076;-43
2021/12/19 04:29:40;;;;;;;68.45;43.17;;;;;;;18.94;50.31;100810.81;4164920;28;20365;-43
2021/12/19 04:31:42;;;;;;;76.10;44.28;;;;;;;18.94;50.40;100808.03;4164658;28;20033;-44
2021/12/19 04:33:43;;;;;;;72.18;42.58;;;;;;;18.93;50.14;100792.53;4165925;28;20079;-49
2021/12/19 04:35:45;;;;;;;65.78;42.22;;;;;;;19.04;49.66;100802.53;4165926;28;20100;-44
2021/12/19 04:40:01;;;;;;;64.85;40.95;;;;;;;19.15;49.36;100770.09;4165342;28;20062;-44
2021/12/19 04:43:17;;;;;;;62.17;40.13;;;;;;;19.20;48.99;100768.22;4166126;28;20049;-43
2021/12/19 04:52:00;;;;;;;57.28;34.05;;;;;;;19.32;48.97;100761.56;4165265;28;20038;-44
2021/12/19 04:54:18;;;;;;;55.95;32.97;;;;;;;19.34;48.62;100759.34;4178274;28;20037;-45
2021/12/19 04:56:33;;;;;;;44.63;29.15;;;;;;;19.38;48.85;100766.00;4181453;28;20094;-42
2021/12/19 05:01:00;;;;;;;43.13;27.75;;;;;;;19.44;48.51;100792.66;4182210;28;20427;-46
2021/12/19 05:03:13;;;;;;;42.03;26.33;;;;;;;19.43;48.43;100777.97;4173519;28;20049;-45
2021/12/19 05:14:24;;;;;;;35.20;22.55;;;;;;;19.53;48.50;100799.34;4181230;28;20048;-44
2021/12/19 05:16:28;;;;;;;33.47;22.17;;;;;;;19.53;48.56;100799.34;4180377;28;20114;-46
2021/12/19 05:18:34;;;;;;;32.47;20.83;;;;;;;19.58;48.80;100823.50;4178934;28;20418;-44
2021/12/19 05:20:36;;;;;;;32.08;21.10;;;;;;;19.59;48.41;100825.16;4180284;28;20082;-45
2021/12/19 05:22:46;;;;;;;29.10;18.60;;;;;;;19.61;48.20;100840.47;4180293;28;20099;-46
2021/12/19 05:25:07;;;;;;;29.90;19.35;;;;;;;19.58;48.53;100827.09;4174469;28;20044;-47
2021/12/19 05:27:10;;;;;;;30.20;18.08;;;;;;;19.63;48.17;100827.16;4180502;28;20037;-48
2021/12/19 05:29:12;;;;;;;31.20;18.65;;;;;;;19.65;48.38;100824.91;4179910;28;20037;-47
2021/12/19 05:31:16;;;;;;;26.50;17.17;;;;;;;19.64;48.15;100801.03;4181121;28;20029;-43
2021/12/19 05:33:18;;;;;;;30.73;18.85;;;;;;;19.66;48.29;100809.94;4180914;28;20037;-46
2021/12/19 05:35:32;;;;;;;27.25;17.63;;;;;;;19.68;47.92;100796.63;4181207;28;20040;-43
2021/12/19 05:46:53;;;;;;;23.30;15.18;;;;;;;19.77;47.75;100822.72;4165108;28;20469;-44
2021/12/19 05:48:55;;;;;;;25.80;14.98;;;;;;;19.78;47.75;100829.94;4163632;28;20037;-43
2021/12/19 05:51:00;;;;;;;22.33;14.13;;;;;;;19.75;47.68;100813.84;4179954;28;20102;-45
2021/12/19 05:53:02;;;;;;;26.17;14.68;;;;;;;19.79;47.55;100831.63;4163702;28;20075;-45
2021/12/19 05:55:04;;;;;;;21.65;13.57;;;;;;;19.80;47.81;100838.00;4164745;28;20041;-45
2021/12/19 05:57:06;;;;;;;23.45;14.85;;;;;;;19.79;47.83;100848.28;4164377;28;20084;-44
2021/12/19 05:59:08;;;;;;;22.33;13.25;;;;;;;19.83;47.40;100853.25;4167309;28;20033;-44
2021/12/19 06:01:10;;;;;;;23.60;13.10;;;;;;;19.84;47.62;100866.03;4180624;28;20554;-45
2021/12/19 06:03:11;;;;;;;20.10;13.77;;;;;;;19.85;47.67;100884.38;4180576;28;20036;-46
2021/12/19 06:05:16;;;;;;;20.95;13.02;;;;;;;19.86;47.79;100897.16;4179350;28;20037;-45
2021/12/19 06:07:18;;;;;;;19.00;12.63;;;;;;;19.86;47.46;100881.31;4179396;28;20099;-45
2021/12/19 06:09:20;;;;;;;21.35;12.57;;;;;;;19.88;47.62;100878.25;4180551;28;20139;-46
2021/12/19 06:11:21;;;;;;;19.50;13.32;;;;;;;19.74;47.52;100844.66;4180670;28;20045;-45
2021/12/19 06:13:24;;;;;;;18.27;12.27;;;;;;;19.78;47.66;100862.41;4180908;28;20554;-44
2021/12/19 06:15:26;;;;;;;17.48;11.48;;;;;;;19.78;47.63;100871.59;4180219;28;20412;-44
2021/12/19 06:17:27;;;;;;;18.40;12.27;;;;;;;19.89;47.67;100896.63;4177700;28;20048;-44
2021/12/19 06:19:29;;;;;;;21.05;12.18;;;;;;;19.90;47.60;100887.16;4180635;28;20033;-43
2021/12/19 06:21:30;;;;;;;17.95;12.15;;;;;;;19.90;47.38;100882.44;4181125;28;20037;-46
2021/12/19 06:23:33;;;;;;;17.33;11.27;;;;;;;19.90;47.79;100878.84;4180461;28;20102;-43
2021/12/19 06:25:35;;;;;;;17.25;11.25;;;;;;;19.89;47.53;100863.28;4180778;28;20112;-46
2021/12/19 06:27:36;;;;;;;18.55;11.63;;;;;;;19.93;47.70;100861.59;4179989;28;20053;-46
2021/12/19 06:29:38;;;;;;;15.18;11.00;;;;;;;19.93;47.72;100872.72;4180814;28;20029;-45
2021/12/19 06:31:39;;;;;;;17.58;10.80;;;;;;;19.94;47.91;100877.19;4179415;28;20040;-45
2021/12/19 06:33:41;;;;;;;17.48;11.20;;;;;;;19.85;47.63;100868.56;4167742;28;20120;-45
2021/12/19 06:35:43;;;;;;;16.17;11.50;;;;;;;19.93;47.47;100873.56;4162455;28;20459;-45
2021/12/19 06:37:47;;;;;;;15.57;10.13;;;;;;;19.91;47.57;100877.72;4163400;28;20103;-46
2021/12/19 06:39:48;;;;;;;17.10;10.50;;;;;;;19.92;47.91;100873.81;4163572;28;20366;-44
2021/12/19 06:41:50;;;;;;;15.82;10.80;;;;;;;19.92;47.79;100879.38;4163747;28;20099;-44
2021/12/19 06:43:51;;;;;;;14.85;10.65;;;;;;;19.92;48.03;100893.28;4164002;28;20435;-46
2021/12/19 06:45:56;;;;;;;15.57;10.98;;;;;;;19.92;48.01;100899.66;4162513;28;20512;-44
2021/12/19 06:47:57;;;;;;;16.27;10.50;;;;;;;19.93;48.05;100897.72;4163545;28;20111;-49
2021/12/19 06:49:59;;;;;;;14.50;9.23;;;;;;;19.93;47.91;100898.56;4163908;28;20111;-43
2021/12/19 06:52:00;;;;;;;15.18;10.80;;;;;;;19.87;48.06;100882.16;4163331;28;20551;-46
2021/12/19 06:54:03;;;;;;;15.65;10.10;;;;;;;19.93;47.80;100889.38;4163753;28;20465;-43
2021/12/19 06:56:07;;;;;;;15.98;9.95;;;;;;;19.93;47.94;100893.00;4163012;28;20099;-44
2021/12/19 06:58:08;;;;;;;15.80;10.20;;;;;;;19.95;47.77;100890.78;4163636;28;20076;-44
2021/12/19 07:00:27;;;;;;;14.15;9.52;;;;;;;19.91;48.17;100899.94;4163783;28;20045;-47
2021/12/19 07:02:29;;;;;;;13.88;9.90;;;;;;;19.97;48.02;100905.22;4170118;28;20480;-43
2021/12/19 07:04:30;;;;;;;15.27;9.52;;;;;;;19.94;47.80;100904.94;4181552;28;20464;-44
2021/12/19 07:06:32;;;;;;;14.77;9.82;;;;;;;20.00;47.67;100909.41;4183071;28;20434;-45
2021/12/19 07:08:33;;;;;;;16.58;10.65;;;;;;;19.99;47.83;100904.97;4169694;28;20489;-45
2021/12/19 07:10:35;;;;;;;13.27;9.30;;;;;;;19.99;48.20;100903.00;4167806;28;20089;-46
2021/12/19 07:12:39;;;;;;;15.05;9.00;;;;;;;19.99;47.87;100914.13;4169715;28;20440;-44
2021/12/19 07:14:43;;;;;;;13.27;8.82;;;;;;;20.00;47.89;100920.50;4175302;28;20099;-44
2021/12/19 07:16:45;;;;;;;13.60;9.27;;;;;;;20.00;47.81;100931.63;4182500;28;20053;-47
2021/12/19 07:18:47;;;;;;;15.90;8.98;;;;;;;20.00;48.10;100929.66;4173273;28;20275;-45
2021/12/19 07:20:49;;;;;;;13.02;8.82;;;;;;;20.02;47.75;100940.50;4168726;28;20029;-46
2021/12/19 07:22:53;;;;;;;14.20;9.38;;;;;;;20.00;47.92;100948.28;4179310;28;20037;-45
2021/12/19 07:24:54;;;;;;;12.75;8.95;;;;;;;20.01;47.96;100949.94;4166607;28;20079;-42
2021/12/19 07:26:55;;;;;;;13.15;8.70;;;;;;;19.99;48.17;100941.91;4167541;28;20026;-43
2021/12/19 07:28:58;;;;;;;14.05;8.88;;;;;;;19.97;48.03;100948.81;4176711;28;20484;-46
2021/12/19 07:30:59;;;;;;;12.65;8.45;;;;;;;20.01;47.95;100969.38;4167157;28;20026;-43
2021/12/19 07:33:01;;;;;;;12.23;8.40;;;;;;;19.83;48.25;100931.03;4174407;28;20496;-46
2021/12/19 07:35:05;;;;;;;12.30;8.73;;;;;;;19.99;48.29;100955.78;4184471;28;20186;-44
2021/12/19 07:37:09;;;;;;;14.20;8.82;;;;;;;20.02;48.22;100960.81;4181866;28;20182;-45
2021/12/19 07:39:23;;;;;;;13.65;8.45;;;;;;;20.03;48.20;100973.56;4175426;28;20025;-43
2021/12/19 07:41:24;;;;;;;14.02;8.52;;;;;;;20.05;47.91;100978.84;4178869;28;20041;-43
2021/12/19 07:43:26;;;;;;;10.45;7.70;;;;;;;20.06;48.11;100980.50;4167076;28;20099;-44
2021/12/19 07:45:27;;;;;;;13.13;9.15;;;;;;;20.00;48.04;100964.94;4181972;28;20037;-45
2021/12/19 07:47:29;;;;;;;11.57;8.32;;;;;;;20.05;47.95;100973.28;4180269;28;20029;-45
2021/12/19 07:49:30;;;;;;;11.57;8.05;;;;;;;20.05;47.92;100990.78;4166717;28;20072;-43
2021/12/19 07:51:31;;;;;;;12.38;7.88;;;;;;;20.05;47.99;101001.06;4181642;28;20079;-45
2021/12/19 07:53:33;;;;;;;10.80;7.75;;;;;;;20.02;48.04;100999.69;4166099;28;20392;-45
2021/12/19 07:55:35;;;;;;;10.93;7.35;;;;;;;20.03;47.72;101000.53;4166020;28;20042;-46
2021/12/19 07:57:40;;;;;;;11.25;8.02;;;;;;;20.05;47.83;101023.28;4164818;28;20037;-44
2021/12/19 07:59:41;;;;;;;11.90;8.00;;;;;;;20.05;47.95;101018.56;4166492;28;20045;-45
2021/12/19 08:01:43;;;;;;;10.18;7.45;;;;;;;20.06;47.92;101025.78;4166812;28;20119;-45
2021/12/19 08:03:44;;;;;;;10.65;7.32;;;;;;;20.07;48.13;101043.31;4178042;28;20044;-44
2021/12/19 08:05:46;;;;;;;12.18;7.80;;;;;;;20.07;48.03;101043.31;4181528;28;20056;-48
2021/12/19 08:07:54;;;;;;;11.50;7.90;;;;;;;20.06;47.82;101047.19;4178953;28;20037;-43
2021/12/19 08:10:11;;;;;;;9.98;7.10;;;;;;;20.07;47.91;101065.53;4179501;28;20049;-46
2021/12/19 08:12:13;;;;;;;9.43;6.88;;;;;;;20.08;47.84;101072.75;4168290;28;20041;-44
2021/12/19 08:14:16;;;;;;;10.18;7.47;;;;;;;20.07;47.90;101065.53;4165639;28;20042;-47
2021/12/19 08:16:17;;;;;;;13.23;7.30;;;;;;;20.08;47.81;101064.44;4164858;28;20076;-44
2021/12/19 08:18:18;;;;;;;11.20;6.88;;;;;;;20.08;47.73;101061.66;4173963;28;20094;-44
2021/12/19 08:20:20;;;;;;;10.00;6.43;;;;;;;20.08;47.63;101067.22;4179302;28;20052;-49
2021/12/19 08:22:21;;;;;;;10.05;7.32;;;;;;;20.05;47.82;101043.56;4180134;28;20070;-44
2021/12/19 08:24:23;;;;;;;10.20;7.05;;;;;;;20.05;47.85;101035.25;4165503;28;20083;-47
2021/12/19 08:26:25;;;;;;;12.35;7.43;;;;;;;20.09;47.90;101037.47;4165125;28;20436;-46
2021/12/19 08:28:26;;;;;;;11.50;7.28;;;;;;;20.07;47.86;101054.44;4176283;28;20041;-44
2021/12/19 08:30:29;;;;;;;10.95;7.30;;;;;;;20.06;48.22;101053.56;4181428;28;20032;-43
2021/12/19 08:32:30;;;;;;;9.48;7.10;;;;;;;20.09;47.99;101038.31;4181574;28;20041;-45
2021/12/19 08:34:31;;;;;;;8.95;6.60;;;;;;;20.09;47.96;101048.59;4181345;28;20441;-45
2021/12/19 08:36:33;;;;;;;9.95;7.10;;;;;;;20.08;48.20;101033.88;4171941;28;20123;-44
2021/12/19 08:38:40;;;;;;;9.45;6.70;;;;;;;20.05;47.94;101039.97;4164587;28;20049;-44
2021/12/19 08:40:43;;;;;;;9.43;7.03;;;;;;;20.08;47.93;101055.25;4169557;28;20037;-43
2021/12/19 08:42:45;;;;;;;8.63;6.60;;;;;;;20.07;48.10;101040.53;4179510;28;20114;-44
2021/12/19 08:44:46;;;;;;;8.60;6.47;;;;;;;20.06;48.09;101036.06;4178587;28;20045;-45
2021/12/19 08:46:48;;;;;;;9.25;6.80;;;;;;;20.07;48.13;101046.09;4176278;28;20041;-44
2021/12/19 08:48:49;;;;;;;8.65;6.30;;;;;;;20.07;48.11;101054.44;4164967;28;20025;-45
2021/12/19 08:50:51;;;;;;;8.70;6.18;;;;;;;20.07;48.38;101060.00;4170026;28;20036;-42
2021/12/19 08:52:53;;;;;;;9.82;7.07;;;;;;;20.05;48.24;101051.91;4169580;28;20485;-44
2021/12/19 08:54:54;;;;;;;8.52;6.35;;;;;;;20.06;47.98;101063.84;4164983;28;20037;-43
2021/12/19 08:56:56;;;;;;;7.25;5.90;;;;;;;20.06;48.18;101072.19;4165196;28;20037;-46
2021/12/19 08:58:58;;;;;;;9.25;6.15;;;;;;;20.07;48.14;101071.09;4164789;28;20412;-42
2021/12/19 09:01:01;;;;;;;8.18;5.68;;;;;;;20.07;47.92;101060.00;4164952;28;20477;-44
2021/12/19 09:03:03;;;;;;;7.57;5.78;;;;;;;20.07;47.99;101076.66;4170049;28;20114;-44
2021/12/19 09:05:05;;;;;;;7.95;5.93;;;;;;;20.07;47.88;101071.09;4180040;28;20044;-44
2021/12/19 09:07:07;;;;;;;8.85;6.07;;;;;;;20.06;47.84;101086.91;4181035;28;20037;-43
2021/12/19 09:09:08;;;;;;;8.98;6.22;;;;;;;20.06;48.22;101095.25;4181283;28;20099;-46
2021/12/19 09:11:11;;;;;;;8.75;6.15;;;;;;;20.03;47.90;101104.13;4180694;28;20103;-45
2021/12/19 09:13:12;;;;;;;9.68;5.82;;;;;;;20.05;47.89;101117.75;4178727;28;20025;-47
2021/12/19 09:15:14;;;;;;;7.85;5.85;;;;;;;20.05;48.11;101106.63;4179062;28;20479;-46
2021/12/19 09:17:15;;;;;;;7.90;5.05;;;;;;;20.06;48.29;101111.91;4172274;28;20107;-45
2021/12/19 09:19:17;;;;;;;6.85;5.25;;;;;;;20.08;47.90;101111.66;4164391;28;20033;-47
2021/12/19 09:21:18;;;;;;;8.75;6.63;;;;;;;20.06;48.00;101102.75;4164647;28;20095;-48
2021/12/19 09:23:20;;;;;;;7.07;5.40;;;;;;;20.05;47.77;101107.47;4180342;28;20443;-48
2021/12/19 09:25:21;;;;;;;8.02;5.90;;;;;;;20.05;48.15;101129.69;4179231;28;20044;-44
2021/12/19 09:27:22;;;;;;;7.28;5.15;;;;;;;20.06;48.08;101127.75;4167283;28;20041;-46
2021/12/19 09:29:28;;;;;;;9.55;5.63;;;;;;;20.06;48.13;101136.06;4168085;28;20028;-44
2021/12/19 09:31:29;;;;;;;8.25;6.05;;;;;;;20.05;47.84;101129.69;4164708;28;20033;-44
2021/12/19 09:33:31;;;;;;;7.65;5.47;;;;;;;20.05;48.29;101112.19;4173003;28;20396;-47
2021/12/19 09:35:34;;;;;;;7.35;5.03;;;;;;;20.03;47.95;101119.97;4180521;28;20040;-44
2021/12/19 09:37:35;;;;;;;8.48;5.78;;;;;;;20.05;48.11;101118.56;4172200;28;20099;-48
2021/12/19 09:39:36;;;;;;;7.13;5.38;;;;;;;20.04;48.26;101116.91;4164062;28;20041;-43
2021/12/19 09:41:44;;;;;;;9.10;5.90;;;;;;;20.02;48.26;101116.34;4164720;28;20103;-44
2021/12/19 09:43:45;;;;;;;7.78;4.90;;;;;;;20.03;48.22;101136.63;4164025;28;20037;-45
2021/12/19 09:45:55;;;;;;;6.50;5.35;;;;;;;20.03;47.81;101158.84;4168068;28;20033;-44
2021/12/19 09:47:57;;;;;;;8.25;5.25;;;;;;;20.05;48.28;101162.19;4170804;28;20036;-44
2021/12/19 09:49:59;;;;;;;6.85;5.07;;;;;;;20.03;47.87;101154.13;4180608;28;20044;-45
2021/12/19 09:52:04;;;;;;;7.55;5.03;;;;;;;20.02;48.03;101157.16;4173460;28;20447;-48
2021/12/19 09:54:07;;;;;;;8.07;5.45;;;;;;;20.04;48.18;101177.19;4164216;28;20481;-47
2021/12/19 09:56:09;;;;;;;8.10;5.40;;;;;;;20.02;47.98;101177.47;4164487;28;20025;-47
2021/12/19 09:58:11;;;;;;;8.00;5.38;;;;;;;20.03;47.89;101187.47;4164050;28;20095;-46
2021/12/19 10:00:13;;;;;;;6.40;5.55;;;;;;;20.01;48.10;101188.84;4163994;28;20037;-45
2021/12/19 10:02:15;;;;;;;8.13;5.82;;;;;;;20.03;48.02;101197.75;4163767;28;20110;-47
2021/12/19 10:04:37;;;;;;;6.65;5.63;;;;;;;20.00;48.13;101189.94;4164219;28;20057;-45
2021/12/19 10:06:38;;;;;;;8.23;5.20;;;;;;;20.02;48.06;101207.16;4167850;28;20432;-49
2021/12/19 10:08:40;;;;;;;6.25;4.50;;;;;;;19.99;47.95;101205.78;4166884;28;20033;-46
2021/12/19 10:10:54;;;;;;;6.80;4.85;;;;;;;20.02;48.19;101218.28;4180504;28;20162;-45
2021/12/19 10:12:58;;;;;;;7.57;4.75;;;;;;;20.01;48.11;101223.00;4173662;28;20045;-47
2021/12/19 10:15:02;;;;;;;6.28;5.35;;;;;;;20.01;47.63;101223.00;4164134;28;20087;-43
2021/12/19 10:17:18;;;;;;;6.93;5.10;;;;;;;20.02;47.59;101218.28;4178847;28;20045;-43
2021/12/19 10:19:20;;;;;;;7.32;5.30;;;;;;;20.03;47.85;101237.47;4167112;28;20106;-44